Time;durP1;ratioP1;P1;durP2;ratioP2;P2;SDS_P1;SDS_P2;PMS_P1;PMS_P2;Temp;Humidity;BMP_temperature;BMP_pressure;BME280_temperature;BME280_humidity;BME280_pressure;Samples;Min_cycle;Max_cycle;Signal;HPM_P1;HPM_P2
2022/07/09 12:05:00;;;;;;;;;6.00;6.00;;;;;29.09;34.66;101813.88;6290320;22;908027;-73
2022/07/09 12:07:26;;;;;;;;;7.50;7.00;;;;;28.94;34.91;101805.47;6336160;22;45234;-78
2022/07/09 12:10:10;;;;;;;;;8.00;6.50;;;;;28.90;35.17;101806.78;6311351;22;45803;-81
2022/07/09 12:12:37;;;;;;;;;8.50;7.75;;;;;28.88;34.61;101807.91;6342493;22;45299;-81
2022/07/09 12:15:05;;;;;;;;;5.75;5.75;;;;;29.04;34.36;101818.06;6288149;22;45255;-82
2022/07/09 12:17:31;;;;;;;;;8.00;8.00;;;;;29.11;34.79;101786.66;6342444;22;45972;-81
2022/07/09 12:19:58;;;;;;;;;8.25;8.25;;;;;29.35;34.10;101804.13;6339192;22;45281;-79
2022/07/09 12:22:24;;;;;;;;;6.25;6.25;;;;;29.39;33.08;101797.41;6335677;22;45301;-77
2022/07/09 12:24:52;;;;;;;;;7.00;7.00;;;;;29.43;33.20;101798.81;6307337;22;45511;-74
2022/07/09 12:27:19;;;;;;;;;8.50;7.00;;;;;29.47;33.67;101802.06;6335001;22;46106;-75
2022/07/09 12:29:46;;;;;;;;;6.00;6.00;;;;;29.47;32.88;101793.94;6306339;22;45981;-75
2022/07/09 12:32:12;;;;;;;;;10.75;9.50;;;;;29.56;32.14;101801.97;6335600;22;45434;-76
2022/07/09 12:34:37;;;;;;;;;8.00;8.00;;;;;29.65;32.66;101802.03;6308608;22;45543;-78
2022/07/09 12:37:04;;;;;;;;;8.00;7.75;;;;;29.73;32.94;101783.97;6339654;22;45428;-84
2022/07/09 12:39:29;;;;;;;;;8.00;8.00;;;;;29.66;32.96;101763.91;6310406;22;45310;-78
2022/07/09 12:41:55;;;;;;;;;11.00;8.25;;;;;29.91;33.35;101780.34;6336147;22;45254;-79
2022/07/09 12:44:20;;;;;;;;;10.00;7.00;;;;;30.08;33.04;101778.59;6337240;22;45553;-81
2022/07/09 12:46:45;;;;;;;;;13.25;9.50;;;;;30.30;32.97;101779.91;6337219;22;45371;-73
2022/07/09 12:49:11;;;;;;;;;6.75;6.75;;;;;30.40;32.81;101776.19;6336845;22;45251;-81
2022/07/09 12:51:36;;;;;;;;;5.75;5.75;;;;;30.17;32.67;101774.91;6309971;22;45244;-80
2022/07/09 12:54:02;;;;;;;;;8.25;8.25;;;;;30.06;32.76;101779.75;6338957;22;45349;-82
2022/07/09 12:56:27;;;;;;;;;9.00;7.25;;;;;29.96;33.14;101767.13;6339267;22;46104;-83
2022/07/09 12:58:53;;;;;;;;;7.00;7.00;;;;;30.00;32.62;101768.53;6316633;22;45401;-83
2022/07/09 13:01:19;;;;;;;;;6.25;6.25;;;;;30.10;32.33;101768.44;6338127;22;45261;-81
2022/07/09 13:03:44;;;;;;;;;8.00;6.00;;;;;30.31;32.02;101764.44;6337453;22;45893;-80
2022/07/09 13:08:54;;;;;;;;;7.25;7.25;;;;;30.50;31.89;101749.75;6344286;22;45303;-83
2022/07/09 13:11:20;;;;;;;;;9.25;7.50;;;;;30.47;31.79;101750.09;6352588;22;45426;-78
2022/07/09 13:13:46;;;;;;;;;6.00;6.00;;;;;30.48;31.67;101750.94;6340538;22;45261;-74
2022/07/09 13:16:11;;;;;;;;;6.50;6.50;;;;;30.33;31.08;101727.13;6336314;22;45879;-79
2022/07/09 13:18:37;;;;;;;;;11.00;9.50;;;;;30.36;31.25;101751.22;6334431;22;45342;-79
2022/07/09 13:21:02;;;;;;;;;8.25;8.25;;;;;30.26;31.17;101734.25;6334297;22;45335;-78
2022/07/09 13:23:27;;;;;;;;;14.50;11.50;;;;;30.16;31.10;101721.66;6342606;22;45463;-77
2022/07/09 13:25:53;;;;;;;;;8.25;8.25;;;;;30.25;32.30;101736.13;6338922;22;45471;-79
2022/07/09 13:28:18;;;;;;;;;5.50;5.50;;;;;30.27;31.63;101733.22;6305953;22;45311;-79
2022/07/09 13:30:43;;;;;;;;;7.50;6.75;;;;;30.28;31.74;101726.78;6334332;22;45932;-76
2022/07/09 13:33:09;;;;;;;;;6.50;6.50;;;;;30.32;31.14;101730.88;6336630;22;45295;-78
2022/07/09 13:35:34;;;;;;;;;7.75;6.00;;;;;30.13;31.35;101708.44;6307888;22;45782;-79
2022/07/09 13:38:00;;;;;;;;;5.50;5.25;;;;;30.19;31.39;101722.34;6335841;22;45329;-78
2022/07/09 13:40:25;;;;;;;;;6.25;6.25;;;;;30.03;31.41;101707.72;6307928;22;45899;-77
2022/07/09 13:42:50;;;;;;;;;7.25;7.25;;;;;30.07;31.38;101711.78;6338908;22;45246;-78
2022/07/09 13:45:16;;;;;;;;;2.00;2.00;;;;;29.98;32.07;101713.56;6335344;22;45908;-78
2022/07/09 13:47:41;;;;;;;;;6.75;5.75;;;;;29.95;31.95;101707.66;6307264;22;45281;-77
2022/07/09 13:50:07;;;;;;;;;6.50;6.25;;;;;29.98;31.62;101710.03;6307809;22;45246;-79
2022/07/09 13:52:32;;;;;;;;;12.25;11.00;;;;;30.07;31.59;101708.22;6335526;22;45161;-79
2022/07/09 13:54:58;;;;;;;;;6.50;6.50;;;;;30.16;30.82;101702.66;6335925;22;46510;-78
2022/07/09 13:57:23;;;;;;;;;8.00;8.00;;;;;30.07;31.31;101700.94;6336208;22;45269;-77
2022/07/09 13:59:48;;;;;;;;;5.25;5.25;;;;;30.06;31.71;101693.81;6336133;22;45209;-78
2022/07/09 14:02:14;;;;;;;;;5.25;4.75;;;;;30.07;31.17;101690.09;6307641;22;45414;-77
2022/07/09 14:04:39;;;;;;;;;7.25;7.25;;;;;30.06;31.23;101690.25;6335583;22;45264;-77
2022/07/09 14:07:04;;;;;;;;;9.00;9.00;;;;;30.08;30.94;101685.50;6335846;22;45252;-76
2022/07/09 14:09:30;;;;;;;;;6.50;6.50;;;;;30.03;30.74;101683.28;6336139;22;45370;-77
2022/07/09 14:11:55;;;;;;;;;7.50;7.50;;;;;29.92;30.71;101678.97;6336362;22;45289;-75
2022/07/09 14:14:20;;;;;;;;;5.75;5.75;;;;;29.92;30.63;101678.13;6336582;22;45359;-77
2022/07/09 14:16:46;;;;;;;;;6.00;6.00;;;;;30.01;30.64;101686.16;6337734;22;45257;-81
2022/07/09 14:19:11;;;;;;;;;7.00;7.00;;;;;30.08;31.28;101672.81;6311433;22;45246;-78
2022/07/09 14:21:37;;;;;;;;;4.50;4.50;;;;;30.24;30.49;101677.44;6340010;22;45248;-77
2022/07/09 14:24:03;;;;;;;;;7.25;7.00;;;;;30.17;30.89;101643.81;6345557;22;46212;-77
2022/07/09 14:26:29;;;;;;;;;7.00;7.00;;;;;30.48;30.44;101672.22;6346689;22;44734;-76
2022/07/09 14:28:54;;;;;;;;;6.75;6.75;;;;;30.53;30.40;101668.00;6323819;22;45144;-76
2022/07/09 14:31:19;;;;;;;;;8.25;6.25;;;;;30.44;30.44;101675.25;6355993;22;45059;-76
2022/07/09 14:33:45;;;;;;;;;11.00;9.25;;;;;30.30;30.71;101671.34;6351125;22;45205;-77
2022/07/09 14:36:10;;;;;;;;;7.00;7.00;;;;;30.10;30.83;101659.91;6347559;22;45153;-77
2022/07/09 14:38:37;;;;;;;;;6.00;6.00;;;;;29.85;30.76;101661.66;6338163;22;45263;-80
2022/07/09 14:41:02;;;;;;;;;5.00;5.00;;;;;29.86;30.84;101674.19;6311193;22;45306;-79
2022/07/09 14:43:27;;;;;;;;;5.00;5.00;;;;;29.88;30.28;101675.75;6341269;22;45256;-77
2022/07/09 14:45:53;;;;;;;;;6.00;6.00;;;;;29.84;30.38;101668.09;6339928;22;45240;-77
2022/07/09 14:48:18;;;;;;;;;5.00;5.00;;;;;29.88;30.42;101667.63;6309091;22;45172;-80
2022/07/09 14:50:44;;;;;;;;;4.75;4.75;;;;;29.78;30.98;101637.06;6338389;22;45503;-78
2022/07/09 14:53:09;;;;;;;;;5.00;5.00;;;;;29.86;31.09;101642.53;6309619;22;45971;-78
2022/07/09 14:55:35;;;;;;;;;6.00;5.00;;;;;30.17;30.46;101668.22;6337562;22;45194;-77
2022/07/09 14:58:01;;;;;;;;;6.00;4.75;;;;;30.21;30.10;101657.91;6338173;22;45293;-79
2022/07/09 15:00:26;;;;;;;;;6.50;6.50;;;;;30.17;30.35;101657.38;6343566;22;45340;-78
2022/07/09 15:02:52;;;;;;;;;5.75;5.75;;;;;30.30;30.46;101659.63;6339435;22;45499;-77
2022/07/09 15:05:17;;;;;;;;;7.50;5.50;;;;;30.18;30.17;101618.38;6337191;22;45303;-77
2022/07/09 15:07:43;;;;;;;;;7.75;7.75;;;;;30.48;30.64;101659.50;6338300;22;45336;-77
2022/07/09 15:10:09;;;;;;;;;6.50;6.50;;;;;30.45;30.40;101666.09;6338912;22;45214;-79
2022/07/09 15:12:34;;;;;;;;;5.50;5.50;;;;;30.39;30.87;101657.78;6338852;22;46050;-75
2022/07/09 15:14:59;;;;;;;;;6.50;5.50;;;;;30.16;30.87;101637.56;6337169;22;45169;-78
2022/07/09 15:17:25;;;;;;;;;5.00;5.00;;;;;30.14;30.37;101658.56;6337042;22;45198;-77
2022/07/09 15:19:50;;;;;;;;;6.00;6.00;;;;;29.94;30.83;101654.41;6337869;22;45245;-78
2022/07/09 15:22:16;;;;;;;;;7.00;6.00;;;;;29.89;30.83;101646.75;6339606;22;45163;-76
2022/07/09 15:24:41;;;;;;;;;6.25;5.25;;;;;29.96;30.53;101655.94;6340998;22;45149;-77
2022/07/09 15:27:07;;;;;;;;;3.50;3.00;;;;;29.91;30.83;101642.00;6339332;22;45286;-79
2022/07/09 15:29:33;;;;;;;;;5.50;4.50;;;;;29.96;30.33;101641.53;6338888;22;45088;-80
2022/07/09 15:31:58;;;;;;;;;4.50;4.50;;;;;29.94;30.44;101644.41;6337305;22;45169;-76
2022/07/09 15:34:24;;;;;;;;;6.75;3.75;;;;;29.86;30.50;101656.09;6337164;22;45253;-79
2022/07/09 15:36:49;;;;;;;;;6.50;6.50;;;;;29.83;30.72;101648.28;6337243;22;45382;-78
2022/07/09 15:39:14;;;;;;;;;4.75;4.75;;;;;29.72;30.65;101622.28;6337803;22;45264;-78
2022/07/09 15:41:40;;;;;;;;;5.25;5.25;;;;;29.90;30.40;101642.19;6336799;22;45955;-76
2022/07/09 15:44:05;;;;;;;;;6.00;6.00;;;;;29.98;30.63;101643.06;6336985;22;45205;-76
2022/07/09 15:46:32;;;;;;;;;6.75;6.75;;;;;30.05;30.56;101629.72;6336737;22;45340;-78
2022/07/09 15:48:58;;;;;;;;;5.00;5.00;;;;;30.08;30.81;101634.81;6343093;22;45515;-79
2022/07/09 15:51:24;;;;;;;;;10.00;7.00;;;;;30.14;30.52;101611.59;6339111;22;46129;-77
2022/07/09 15:53:49;;;;;;;;;9.75;9.75;;;;;30.35;30.58;101624.69;6337991;22;45180;-78
2022/07/09 15:56:17;;;;;;;;;9.00;8.50;;;;;30.62;30.38;101635.44;6340100;22;45221;-73
2022/07/09 15:58:43;;;;;;;;;8.75;7.25;;;;;30.80;30.38;101640.72;6336509;22;45170;-75
2022/07/09 16:01:10;;;;;;;;;8.00;6.00;;;;;30.92;30.47;101633.91;6336106;22;45191;-75
2022/07/09 16:03:35;;;;;;;;;7.00;6.25;;;;;30.83;30.08;101632.22;6338877;22;45367;-74
2022/07/09 16:06:01;;;;;;;;;5.50;5.25;;;;;30.86;30.30;101631.88;6341808;22;45220;-73
2022/07/09 16:08:26;;;;;;;;;7.00;7.00;;;;;30.78;30.55;101630.00;6309703;22;45574;-74
2022/07/09 16:10:51;;;;;;;;;4.00;4.00;;;;;30.82;30.44;101625.94;6339745;22;46233;-81
2022/07/09 16:13:17;;;;;;;;;5.00;5.00;;;;;30.80;30.42;101630.69;6337157;22;45309;-73
2022/07/09 16:15:42;;;;;;;;;7.00;6.00;;;;;30.92;30.60;101628.50;6334894;22;45735;-73
2022/07/09 16:18:08;;;;;;;;;6.50;6.50;;;;;30.96;30.39;101621.69;6306886;22;45470;-74
2022/07/09 16:20:33;;;;;;;;;5.25;5.25;;;;;31.12;30.27;101622.69;6335194;22;45365;-75
2022/07/09 16:22:59;;;;;;;;;6.00;6.00;;;;;31.18;30.52;101619.31;6334453;22;45372;-75
2022/07/09 16:25:25;;;;;;;;;5.25;4.75;;;;;31.28;29.73;101628.09;6334402;22;45308;-74
2022/07/09 16:27:50;;;;;;;;;5.00;5.00;;;;;31.56;29.91;101635.00;6335713;22;45510;-75
2022/07/09 16:30:16;;;;;;;;;5.50;5.50;;;;;31.86;29.10;101627.94;6334948;22;46011;-77
2022/07/09 16:32:41;;;;;;;;;4.25;4.25;;;;;32.06;29.82;101624.75;6306687;22;45583;-72
2022/07/09 16:35:08;;;;;;;;;3.00;3.00;;;;;32.30;29.02;101628.34;6334816;22;45286;-77
2022/07/09 16:37:33;;;;;;;;;4.00;4.00;;;;;32.27;29.04;101610.47;6335933;22;45218;-74
2022/07/09 16:39:59;;;;;;;;;3.75;3.75;;;;;32.00;28.72;101614.59;6334797;22;46082;-73
2022/07/09 16:42:26;;;;;;;;;5.00;5.00;;;;;31.91;29.45;101614.63;6334220;22;45735;-73
2022/07/09 16:44:52;;;;;;;;;6.50;5.75;;;;;32.04;28.77;101603.16;6334145;22;45423;-74
2022/07/09 16:47:20;;;;;;;;;10.25;9.00;;;;;32.24;28.66;101599.97;6303672;22;45418;-75
2022/07/09 16:49:46;;;;;;;;;5.00;5.00;;;;;32.49;28.88;101622.44;6332236;22;45931;-74
2022/07/09 16:52:11;;;;;;;;;5.25;5.25;;;;;32.56;27.27;101605.38;6333236;22;45331;-78
2022/07/09 16:54:37;;;;;;;;;6.50;6.50;;;;;32.70;27.71;101595.56;6334447;22;45318;-80
2022/07/09 16:57:02;;;;;;;;;6.00;6.00;;;;;33.00;28.00;101598.34;6308229;22;45508;-79
2022/07/09 16:59:28;;;;;;;;;4.50;4.50;;;;;33.07;27.21;101591.13;6305598;22;46131;-78
2022/07/09 17:01:54;;;;;;;;;4.00;4.00;;;;;33.07;27.38;101604.75;6307667;22;45314;-76
2022/07/09 17:04:19;;;;;;;;;3.00;3.00;;;;;32.84;28.28;101608.34;6336647;22;45422;-77
2022/07/09 17:06:45;;;;;;;;;5.00;5.00;;;;;32.81;27.46;101595.09;6308936;22;45322;-81
2022/07/09 17:09:12;;;;;;;;;6.75;5.25;;;;;32.86;27.89;101600.88;6337568;22;46473;-81
2022/07/09 17:11:39;;;;;;;;;3.25;3.25;;;;;32.95;27.15;101595.34;6353986;22;44881;-80
2022/07/09 17:14:04;;;;;;;;;4.50;4.00;;;;;33.00;27.46;101593.75;6347412;22;45205;-81
2022/07/09 17:16:30;;;;;;;;;4.50;4.50;;;;;33.08;27.57;101587.38;6339832;22;45277;-79
2022/07/09 17:18:55;;;;;;;;;7.00;7.00;;;;;33.28;27.33;101593.09;6308073;22;47262;-78
2022/07/09 17:21:20;;;;;;;;;3.75;3.75;;;;;33.47;27.05;101589.00;6335553;22;45276;-76
2022/07/09 17:23:46;;;;;;;;;1.25;1.25;;;;;33.54;26.92;101594.53;6341069;22;45219;-73
2022/07/09 17:26:12;;;;;;;;;3.00;3.00;;;;;33.64;27.39;101596.97;6335708;22;45215;-74
2022/07/09 17:28:38;;;;;;;;;4.25;3.00;;;;;33.84;26.12;101593.63;6308252;22;46967;-76
2022/07/09 17:31:03;;;;;;;;;5.50;5.00;;;;;33.88;26.63;101594.94;6337982;22;45212;-75
2022/07/09 17:33:29;;;;;;;;;2.00;2.00;;;;;33.72;25.79;101598.72;6336589;22;45329;-76
2022/07/09 17:35:54;;;;;;;;;2.25;2.25;;;;;33.55;26.46;101590.75;6312715;22;45596;-76
2022/07/09 17:38:20;;;;;;;;;2.50;2.50;;;;;33.41;26.49;101595.22;6336671;22;46810;-76
2022/07/09 17:40:47;;;;;;;;;3.00;3.00;;;;;33.31;27.43;101600.03;6336471;22;45656;-75
2022/07/09 17:43:13;;;;;;;;;2.75;2.75;;;;;33.16;27.69;101594.63;6333955;22;45629;-76
2022/07/09 17:45:39;;;;;;;;;6.50;6.50;;;;;33.10;28.78;101606.28;6334840;22;45429;-76
2022/07/09 17:48:05;;;;;;;;;5.75;5.75;;;;;32.91;29.69;101597.63;6333801;22;47002;-75
2022/07/09 17:50:31;;;;;;;;;5.75;4.00;;;;;32.47;29.70;101596.44;6308805;22;45378;-79
2022/07/09 17:52:57;;;;;;;;;6.50;5.00;;;;;32.16;30.23;101606.31;6336000;22;45731;-79
2022/07/09 17:55:23;;;;;;;;;5.75;5.75;;;;;32.26;30.26;101613.41;6336136;22;45178;-75
2022/07/09 17:57:51;;;;;;;;;4.00;4.00;;;;;32.21;30.59;101616.66;6308020;22;45376;-74
2022/07/09 18:00:18;;;;;;;;;4.75;4.75;;;;;32.14;30.79;101624.72;6336181;22;45322;-77
2022/07/09 18:02:45;;;;;;;;;6.50;6.50;;;;;32.10;31.08;101628.81;6336693;22;45383;-78
2022/07/09 18:05:11;;;;;;;;;6.50;6.00;;;;;31.79;31.22;101605.16;6336580;22;45563;-75
2022/07/09 18:07:37;;;;;;;;;5.50;5.50;;;;;31.81;31.94;101605.88;6336815;22;45197;-79
2022/07/09 18:10:04;;;;;;;;;8.25;7.75;;;;;31.78;31.57;101638.81;6337066;22;45831;-78
2022/07/09 18:12:30;;;;;;;;;7.75;6.25;;;;;31.46;31.97;101632.47;6339234;22;45385;-77
2022/07/09 18:14:55;;;;;;;;;8.25;8.25;;;;;31.39;32.25;101643.22;6335932;22;45404;-77
2022/07/09 18:17:21;;;;;;;;;9.75;8.75;;;;;31.47;31.73;101631.44;6309399;22;47045;-77
2022/07/09 18:19:46;;;;;;;;;6.25;6.25;;;;;31.36;31.92;101648.13;6311771;22;45311;-78
2022/07/09 18:22:12;;;;;;;;;7.75;6.00;;;;;31.31;32.04;101645.94;6340290;22;45260;-78
2022/07/09 18:24:37;;;;;;;;;7.00;6.00;;;;;31.10;32.43;101643.75;6338161;22;45307;-78
2022/07/09 18:27:03;;;;;;;;;5.00;5.00;;;;;30.94;32.50;101653.59;6316929;22;47363;-77
2022/07/09 18:29:28;;;;;;;;;6.00;5.75;;;;;30.85;32.55;101654.63;6319222;22;45306;-78
2022/07/09 18:31:54;;;;;;;;;9.75;7.75;;;;;30.62;32.63;101651.72;6348295;22;45862;-77
2022/07/09 18:34:19;;;;;;;;;10.75;7.25;;;;;30.39;33.48;101663.22;6346057;22;45214;-77
2022/07/09 18:36:44;;;;;;;;;8.00;8.00;;;;;30.30;33.18;101674.06;6344985;22;46140;-75
2022/07/09 18:39:10;;;;;;;;;7.75;7.75;;;;;30.02;33.57;101670.75;6343329;22;45162;-75
2022/07/09 18:41:35;;;;;;;;;7.00;7.00;;;;;29.77;33.95;101662.50;6344408;22;45109;-73
2022/07/09 18:44:01;;;;;;;;;5.00;5.00;;;;;29.43;34.25;101661.47;6344027;22;45240;-73
2022/07/09 18:46:26;;;;;;;;;5.50;5.50;;;;;28.83;34.84;101673.00;6319289;22;47951;-76
2022/07/09 18:48:52;;;;;;;;;4.00;4.00;;;;;28.27;35.77;101662.28;6345613;22;45156;-77
2022/07/09 18:51:17;;;;;;;;;7.75;7.75;;;;;27.87;36.71;101675.13;6348815;22;45648;-79
2022/07/09 18:53:43;;;;;;;;;14.25;12.00;;;;;27.56;37.01;101675.41;6347829;22;45210;-75
2022/07/09 18:56:09;;;;;;;;;11.75;10.75;;;;;27.33;37.30;101674.84;6317804;22;48091;-77
2022/07/09 18:58:34;;;;;;;;;6.50;6.50;;;;;27.06;37.89;101689.97;6345570;22;45206;-77
2022/07/09 19:01:00;;;;;;;;;5.75;5.00;;;;;26.62;38.16;101658.84;6347795;22;45780;-77
2022/07/09 19:03:26;;;;;;;;;5.75;5.50;;;;;26.54;38.54;101680.28;6346248;22;45496;-79
2022/07/09 19:05:51;;;;;;;;;8.75;8.25;;;;;26.42;38.90;101686.75;6346604;22;45131;-76
2022/07/09 19:08:16;;;;;;;;;10.50;8.00;;;;;26.20;39.30;101673.41;6345881;22;45341;-78
2022/07/09 19:10:42;;;;;;;;;8.00;6.75;;;;;26.11;39.49;101683.13;6345697;22;45455;-76
2022/07/09 19:13:08;;;;;;;;;4.75;4.75;;;;;25.96;40.01;101687.19;6346628;22;45278;-76
2022/07/09 19:15:33;;;;;;;;;5.25;4.75;;;;;25.73;39.91;101673.91;6343267;22;46368;-73
2022/07/09 19:17:58;;;;;;;;;3.50;3.50;;;;;25.56;39.83;101683.47;6342135;22;45344;-76
2022/07/09 19:20:24;;;;;;;;;4.75;4.75;;;;;25.52;40.39;101690.97;6345263;22;45133;-76
2022/07/09 19:22:50;;;;;;;;;7.00;5.00;;;;;25.42;40.33;101699.94;6347014;22;45212;-78
2022/07/09 19:25:15;;;;;;;;;6.00;6.00;;;;;25.19;40.20;101689.28;6349347;22;45999;-77
2022/07/09 19:27:41;;;;;;;;;5.50;4.00;;;;;25.13;40.65;101693.34;6345980;22;45081;-77
2022/07/09 19:30:07;;;;;;;;;6.00;6.00;;;;;24.92;41.13;101698.72;6345102;22;45379;-77
2022/07/09 19:35:18;;;;;;;;;4.50;4.50;;;;;24.43;41.23;101682.09;6344385;22;45221;-76
2022/07/09 19:37:43;;;;;;;;;4.50;4.50;;;;;24.38;41.98;101705.78;6345343;22;45177;-76
2022/07/09 19:40:09;;;;;;;;;3.00;3.00;;;;;24.24;41.92;101699.72;6343320;22;45110;-78
2022/07/09 19:42:35;;;;;;;;;6.75;5.25;;;;;24.15;42.12;101700.47;6343143;22;45280;-77
2022/07/09 19:45:00;;;;;;;;;8.75;8.75;;;;;24.12;42.11;101716.81;6342742;22;45350;-78
2022/07/09 19:47:26;;;;;;;;;13.25;13.25;;;;;24.05;42.26;101719.16;6341594;22;45304;-74
2022/07/09 19:49:52;;;;;;;;;5.00;5.00;;;;;23.97;41.75;101726.97;6341627;22;45349;-75
2022/07/09 19:52:18;;;;;;;;;6.00;4.75;;;;;23.85;42.21;101723.41;6341923;22;45376;-77
2022/07/09 19:54:43;;;;;;;;;8.50;7.25;;;;;23.79;42.27;101724.72;6316009;22;46061;-76
2022/07/09 19:57:09;;;;;;;;;8.50;8.50;;;;;23.74;42.35;101735.84;6315900;22;45303;-78
2022/07/09 19:59:34;;;;;;;;;8.00;6.75;;;;;23.60;42.15;101723.47;6342581;22;45262;-76
2022/07/09 20:01:59;;;;;;;;;2.75;2.75;;;;;23.62;42.33;101734.97;6342291;22;45257;-75
2022/07/09 20:04:25;;;;;;;;;5.50;5.50;;;;;23.52;42.13;101738.50;6342576;22;45255;-77
2022/07/09 20:06:50;;;;;;;;;5.75;5.75;;;;;23.45;41.75;101740.78;6315211;22;45230;-75
2022/07/09 20:09:16;;;;;;;;;5.50;5.50;;;;;23.36;41.53;101738.81;6346547;22;45281;-75
2022/07/09 20:11:42;;;;;;;;;7.00;5.00;;;;;23.28;41.08;101759.03;6344866;22;45227;-77
2022/07/09 20:14:07;;;;;;;;;5.25;4.75;;;;;23.16;41.23;101744.66;6341452;22;45521;-75
2022/07/09 20:16:32;;;;;;;;;6.00;5.00;;;;;23.08;40.98;101740.88;6342294;22;45182;-77
2022/07/09 20:18:58;;;;;;;;;5.50;5.00;;;;;23.05;41.09;101750.00;6343117;22;45221;-74
2022/07/09 20:21:24;;;;;;;;;6.50;3.50;;;;;23.10;40.74;101766.59;6339611;22;45108;-75
2022/07/09 20:23:49;;;;;;;;;4.00;3.00;;;;;23.01;40.26;101765.47;6339511;22;45199;-76
2022/07/09 20:26:15;;;;;;;;;6.25;6.25;;;;;22.94;39.83;101771.41;6319891;22;45303;-75
2022/07/09 20:28:41;;;;;;;;;6.00;5.50;;;;;22.79;39.72;101766.22;6344198;22;45230;-78
2022/07/09 20:31:06;;;;;;;;;4.25;3.25;;;;;22.70;40.31;101777.59;6339229;22;45229;-78
2022/07/09 20:33:32;;;;;;;;;5.25;5.25;;;;;22.57;40.00;101781.19;6340182;22;45318;-75
2022/07/09 20:35:57;;;;;;;;;9.25;9.25;;;;;22.54;40.11;101785.91;6341836;22;45228;-75
2022/07/09 20:38:23;;;;;;;;;2.00;2.00;;;;;22.47;39.61;101788.19;6340777;22;45187;-77
2022/07/09 20:40:50;;;;;;;;;5.75;5.75;;;;;22.33;40.35;101784.63;6314208;22;45263;-77
2022/07/09 20:43:16;;;;;;;;;6.00;6.00;;;;;22.29;40.34;101793.88;6310619;22;47315;-75
2022/07/09 20:45:41;;;;;;;;;2.00;2.00;;;;;22.23;40.06;101796.94;6340551;22;45190;-77
2022/07/09 20:48:07;;;;;;;;;2.50;2.50;;;;;22.18;40.29;101799.09;6343380;22;45154;-76
2022/07/09 20:50:33;;;;;;;;;4.25;2.75;;;;;22.11;40.21;101795.13;6346598;22;45257;-78
2022/07/09 20:52:59;;;;;;;;;8.25;7.50;;;;;21.98;40.66;101787.13;6344219;22;46700;-76
2022/07/09 20:55:26;;;;;;;;;4.50;4.50;;;;;21.88;40.75;101797.59;6342771;22;45470;-74
2022/07/09 20:57:51;;;;;;;;;3.00;1.00;;;;;21.83;40.92;101803.28;6340291;22;45278;-75
2022/07/09 21:00:17;;;;;;;;;2.25;2.25;;;;;21.71;41.46;101796.94;6343234;22;45209;-76
2022/07/09 21:02:42;;;;;;;;;4.75;4.75;;;;;21.58;41.58;101798.72;6342921;22;46015;-76
2022/07/09 21:05:08;;;;;;;;;2.25;2.25;;;;;21.53;41.45;101801.69;6340802;22;45213;-73
2022/07/09 21:07:33;;;;;;;;;5.25;4.00;;;;;21.49;41.95;101805.53;6339285;22;45336;-75
2022/07/09 21:10:02;;;;;;;;;2.75;2.75;;;;;21.42;41.96;101805.09;6340713;22;45233;-75
2022/07/09 21:12:27;;;;;;;;;4.75;4.75;;;;;21.38;41.83;101802.72;6341103;22;46294;-76
2022/07/09 21:14:53;;;;;;;;;3.00;3.00;;;;;21.41;42.08;101807.88;6344592;22;45212;-77
2022/07/09 21:20:02;;;;;;;;;3.75;2.25;;;;;21.26;42.40;101810.59;6342222;22;44633;-74
2022/07/09 21:22:30;;;;;;;;;2.00;2.00;;;;;20.99;42.75;101782.03;6342991;22;45281;-77
2022/07/09 21:24:57;;;;;;;;;4.75;1.75;;;;;21.12;42.73;101814.19;6346420;22;45300;-77
2022/07/09 21:27:23;;;;;;;;;4.00;4.00;;;;;20.99;43.11;101797.22;6341351;22;45330;-77
2022/07/09 21:29:48;;;;;;;;;5.00;4.00;;;;;21.00;43.12;101828.34;6339815;22;45260;-77
2022/07/09 21:32:13;;;;;;;;;3.00;2.50;;;;;20.90;42.96;101816.53;6340070;22;45249;-77
2022/07/09 21:34:39;;;;;;;;;5.00;3.75;;;;;20.84;43.01;101826.66;6343387;22;45144;-76
2022/07/09 21:37:04;;;;;;;;;6.25;5.00;;;;;20.75;43.32;101821.88;6338848;22;45237;-74
2022/07/09 21:39:30;;;;;;;;;3.75;2.50;;;;;20.69;43.77;101811.59;6337457;22;45158;-74
2022/07/09 21:41:55;;;;;;;;;2.50;2.50;;;;;20.59;43.81;101813.97;6336427;22;45581;-76
2022/07/09 21:44:20;;;;;;;;;3.75;3.75;;;;;20.61;43.57;101812.06;6337457;22;45173;-74
2022/07/09 21:46:46;;;;;;;;;1.00;1.00;;;;;20.60;43.90;101829.03;6337850;22;45164;-74
2022/07/09 21:49:11;;;;;;;;;1.50;1.50;;;;;20.53;44.26;101825.91;6338162;22;45498;-74
2022/07/09 21:51:36;;;;;;;;;3.75;3.75;;;;;20.48;44.12;101822.69;6335001;22;45322;-74
2022/07/09 21:54:02;;;;;;;;;5.25;4.00;;;;;20.42;44.01;101807.03;6336582;22;45108;-76
2022/07/09 21:56:27;;;;;;;;;3.25;3.00;;;;;20.42;44.41;101826.56;6336676;22;45102;-73
2022/07/09 21:58:53;;;;;;;;;3.00;3.00;;;;;20.30;44.33;101813.97;6337184;22;45489;-77
2022/07/09 22:01:19;;;;;;;;;6.50;6.50;;;;;20.32;44.16;101824.59;6336171;22;46187;-72
2022/07/09 22:03:44;;;;;;;;;4.00;3.25;;;;;20.28;44.56;101822.09;6307020;22;45233;-71
2022/07/09 22:06:09;;;;;;;;;5.50;5.00;;;;;20.27;44.59;101820.38;6335481;22;45340;-75
2022/07/09 22:08:36;;;;;;;;;2.75;2.75;;;;;20.23;44.83;101815.31;6336061;22;45344;-72
2022/07/09 22:11:02;;;;;;;;;3.50;3.50;;;;;20.21;45.06;101826.13;6335512;22;46182;-74
2022/07/09 22:13:27;;;;;;;;;4.25;4.25;;;;;20.18;45.00;101831.66;6335321;22;45300;-72
2022/07/09 22:15:52;;;;;;;;;3.25;3.25;;;;;20.10;44.86;101824.09;6307177;22;45865;-70
2022/07/09 22:18:20;;;;;;;;;3.00;2.00;;;;;20.05;45.09;101830.66;6307421;22;45312;-73
2022/07/09 22:20:45;;;;;;;;;4.75;2.50;;;;;19.94;45.17;101816.13;6334716;22;46061;-73
2022/07/09 22:23:11;;;;;;;;;7.00;4.75;;;;;20.02;45.03;101825.50;6334835;22;45151;-74
2022/07/09 22:25:37;;;;;;;;;4.00;4.00;;;;;20.00;45.37;101828.28;6334876;22;45334;-72
2022/07/09 22:28:02;;;;;;;;;5.25;4.50;;;;;19.93;45.48;101824.25;6335234;22;45503;-72
2022/07/09 22:30:28;;;;;;;;;15.50;15.50;;;;;19.89;45.65;101820.03;6334713;22;45947;-73
2022/07/09 22:32:53;;;;;;;;;4.75;3.25;;;;;19.83;46.32;101808.75;6335052;22;45155;-70
2022/07/09 22:35:18;;;;;;;;;4.75;4.00;;;;;19.82;45.82;101814.16;6334377;22;45154;-71
2022/07/09 22:37:44;;;;;;;;;4.00;2.75;;;;;19.78;46.35;101818.84;6281665;22;45452;-71
2022/07/09 22:40:10;;;;;;;;;4.25;4.25;;;;;19.73;45.93;101814.72;6334789;22;45164;-71
2022/07/09 22:42:35;;;;;;;;;5.25;4.00;;;;;19.69;46.90;101812.25;6334876;22;45276;-73
2022/07/09 22:45:00;;;;;;;;;3.00;2.25;;;;;19.64;46.37;101810.81;6335105;22;45243;-76
2022/07/09 22:47:26;;;;;;;;;6.75;6.75;;;;;19.56;47.03;101816.59;6337156;22;45263;-74
2022/07/09 22:49:51;;;;;;;;;9.50;6.25;;;;;19.46;46.46;101813.59;6336095;22;45693;-72
2022/07/09 22:52:17;;;;;;;;;7.75;4.50;;;;;19.52;46.77;101823.06;6337529;22;44715;-74
2022/07/09 22:54:42;;;;;;;;;5.00;3.00;;;;;19.50;46.54;101831.13;6335188;22;45310;-77
2022/07/09 22:57:08;;;;;;;;;6.00;6.00;;;;;19.52;47.23;101833.72;6336677;22;45181;-76
2022/07/09 22:59:34;;;;;;;;;6.50;6.50;;;;;19.51;47.24;101813.31;6336572;22;46165;-76
2022/07/09 23:01:59;;;;;;;;;4.00;4.00;;;;;19.39;47.63;101814.88;6336190;22;45259;-75
2022/07/09 23:04:26;;;;;;;;;5.00;3.25;;;;;19.44;47.38;101825.31;6335410;22;45273;-78
2022/07/09 23:06:51;;;;;;;;;10.00;6.00;;;;;19.37;48.09;101825.66;6336986;22;45558;-77
2022/07/09 23:09:17;;;;;;;;;3.50;3.50;;;;;19.22;47.64;101805.22;6337945;22;45346;-74
2022/07/09 23:11:42;;;;;;;;;7.00;5.75;;;;;19.22;47.98;101815.88;6338579;22;45207;-74
2022/07/09 23:14:07;;;;;;;;;7.00;7.00;;;;;19.19;48.35;101805.38;6338046;22;45239;-72
2022/07/09 23:16:33;;;;;;;;;5.50;5.50;;;;;19.19;48.29;101813.38;6339332;22;45505;-76
2022/07/09 23:19:01;;;;;;;;;8.50;6.00;;;;;19.16;48.73;101810.91;6308278;22;45958;-73
2022/07/09 23:21:26;;;;;;;;;8.25;6.25;;;;;19.15;48.91;101803.84;6335747;22;45214;-73
2022/07/09 23:23:53;;;;;;;;;8.00;5.75;;;;;19.08;48.93;101795.31;6336000;22;45293;-73
2022/07/09 23:26:19;;;;;;;;;7.25;4.25;;;;;19.01;48.69;101800.13;6336448;22;45453;-72
2022/07/09 23:28:46;;;;;;;;;3.75;3.75;;;;;19.03;48.83;101808.91;6307501;22;47315;-77